createdAt,value
2022-10-19T00:00:04.273Z,90.20
2022-10-19T00:01:04.305Z,90.39
2022-10-19T00:02:04.438Z,89.63
2022-10-19T00:03:04.370Z,89.25
2022-10-19T00:04:07.924Z,89.44
2022-10-19T00:05:04.445Z,89.44
2022-10-19T00:06:04.471Z,89.53
2022-10-19T00:07:04.505Z,89.73
2022-10-19T00:08:04.536Z,90.30
2022-10-19T00:09:04.570Z,90.01
2022-10-19T00:10:04.603Z,90.01
2022-10-19T00:11:04.638Z,90.01
2022-10-19T00:12:04.672Z,90.01
2022-10-19T00:13:04.703Z,89.67
2022-10-19T00:14:04.737Z,89.73
2022-10-19T00:15:04.777Z,89.44
2022-10-19T00:16:05.845Z,89.44
2022-10-19T00:17:04.836Z,89.82
2022-10-19T00:18:04.870Z,89.82
2022-10-19T00:19:04.903Z,89.73
2022-10-19T00:20:04.940Z,89.63
2022-10-19T00:21:04.972Z,89.44
2022-10-19T00:22:06.317Z,89.44
2022-10-19T00:23:05.037Z,89.53
2022-10-19T00:24:05.072Z,90.01
2022-10-19T00:25:05.108Z,89.73
2022-10-19T00:26:05.139Z,89.82
2022-10-19T00:27:05.170Z,89.63
2022-10-19T00:28:05.208Z,89.73
2022-10-19T00:29:05.297Z,89.73
2022-10-19T00:30:05.271Z,89.25
2022-10-19T00:31:05.305Z,89.06
2022-10-19T00:32:05.338Z,88.96
2022-10-19T00:33:05.370Z,89.15
2022-10-19T00:34:05.404Z,88.96
2022-10-19T00:35:05.438Z,89.06
2022-10-19T00:36:05.470Z,88.96
2022-10-19T00:37:05.504Z,89.06
2022-10-19T00:38:05.536Z,88.48
2022-10-19T00:39:05.576Z,88.77
2022-10-19T00:40:05.606Z,88.77
2022-10-19T00:41:05.638Z,88.68
2022-10-19T00:42:05.672Z,88.29
2022-10-19T00:43:05.744Z,88.20
2022-10-19T00:44:05.739Z,88.20
2022-10-19T00:45:05.772Z,88.20
2022-10-19T00:46:05.805Z,88.39
2022-10-19T00:47:05.837Z,88.48
2022-10-19T00:48:05.874Z,88.39
2022-10-19T00:49:08.407Z,88.29
2022-10-19T00:50:05.938Z,88.20
2022-10-19T00:51:05.971Z,88.48
2022-10-19T00:52:06.053Z,88.29
2022-10-19T00:53:06.037Z,88.39
2022-10-19T00:54:06.073Z,88.68
2022-10-19T00:55:06.103Z,88.68
2022-10-19T00:56:06.138Z,88.68
2022-10-19T00:57:06.170Z,88.10
2022-10-19T00:58:06.205Z,88.29
2022-10-19T00:59:06.237Z,88.39
2022-10-19T01:00:06.271Z,87.91
2022-10-19T01:01:06.335Z,87.72
2022-10-19T01:02:06.339Z,87.72
2022-10-19T01:03:06.371Z,88.01
2022-10-19T01:04:06.405Z,87.72
2022-10-19T01:05:06.436Z,87.91
2022-10-19T01:06:06.472Z,88.01
2022-10-19T01:07:06.504Z,87.82
2022-10-19T01:08:06.538Z,87.82
2022-10-19T01:09:06.570Z,87.91
2022-10-19T01:10:06.606Z,87.91
2022-10-19T01:11:06.694Z,87.72
2022-10-19T01:12:06.675Z,88.10
2022-10-19T01:13:06.706Z,88.01
2022-10-19T01:14:06.738Z,87.53
2022-10-19T01:15:06.771Z,88.10
2022-10-19T01:16:06.807Z,87.72
2022-10-19T01:17:06.841Z,87.82
2022-10-19T01:18:06.875Z,87.82
2022-10-19T01:19:06.906Z,87.43
2022-10-19T01:20:06.986Z,87.43
2022-10-19T01:21:06.970Z,87.34
2022-10-19T01:22:06.991Z,87.43
2022-10-19T01:23:07.026Z,87.05
2022-10-19T01:24:07.058Z,86.67
2022-10-19T01:25:07.096Z,86.47
2022-10-19T01:26:07.125Z,86.38
2022-10-19T01:27:07.160Z,86.29
2022-10-19T01:28:07.191Z,86.29
2022-10-19T01:29:07.301Z,86.19
2022-10-19T01:30:07.263Z,85.90
2022-10-19T01:31:07.293Z,85.52
2022-10-19T01:32:07.324Z,85.90
2022-10-19T01:33:07.359Z,85.81
2022-10-19T01:34:07.394Z,85.42
2022-10-19T01:35:07.427Z,85.71
2022-10-19T01:36:07.459Z,85.14
2022-10-19T01:37:07.492Z,84.95
2022-10-19T01:38:07.526Z,84.56
2022-10-19T01:39:07.559Z,84.66
2022-10-19T01:40:07.591Z,84.28
2022-10-19T01:41:07.629Z,84.38
2022-10-19T01:42:07.668Z,84.28
2022-10-19T01:43:07.697Z,84.38
2022-10-19T01:44:07.725Z,83.70
2022-10-19T01:45:07.760Z,84.28
2022-10-19T01:46:07.792Z,84.38
2022-10-19T01:47:07.826Z,84.66
2022-10-19T01:48:07.858Z,84.66
2022-10-19T01:49:07.893Z,84.56
2022-10-19T01:50:07.929Z,84.28
2022-10-19T01:51:07.959Z,84.38
2022-10-19T01:52:07.999Z,84.28
2022-10-19T01:53:08.027Z,84.85
2022-10-19T01:54:08.089Z,84.47
2022-10-19T01:55:08.094Z,84.38
2022-10-19T01:56:08.126Z,84.47
2022-10-19T01:57:08.158Z,84.66
2022-10-19T01:58:09.571Z,84.09
2022-10-19T01:59:08.224Z,84.56
2022-10-19T02:00:08.260Z,84.85
2022-10-19T02:01:08.456Z,84.76
2022-10-19T02:02:08.327Z,84.85
2022-10-19T02:03:08.359Z,84.95
2022-10-19T02:04:08.409Z,84.95
2022-10-19T02:05:08.425Z,85.05
2022-10-19T02:06:08.495Z,85.24
2022-10-19T02:07:08.493Z,85.42
2022-10-19T02:08:08.528Z,85.33
2022-10-19T02:09:08.562Z,85.24
2022-10-19T02:10:08.623Z,85.24
2022-10-19T02:11:08.627Z,85.52
2022-10-19T02:12:08.662Z,85.24
2022-10-19T02:13:08.695Z,85.81
2022-10-19T02:14:08.727Z,85.52
2022-10-19T02:15:08.759Z,86.00
2022-10-19T02:16:08.793Z,86.00
2022-10-19T02:17:08.826Z,85.90
2022-10-19T02:18:08.862Z,86.00
2022-10-19T02:19:08.901Z,85.81
2022-10-19T02:20:08.927Z,86.67
2022-10-19T02:21:08.961Z,86.38
2022-10-19T02:22:08.999Z,86.57
2022-10-19T02:23:09.026Z,86.47
2022-10-19T02:24:09.061Z,85.90
2022-10-19T02:25:09.092Z,85.81
2022-10-19T02:26:09.128Z,85.90
2022-10-19T02:27:09.161Z,86.10
2022-10-19T02:28:09.200Z,86.38
2022-10-19T02:29:09.228Z,85.81
2022-10-19T02:30:09.261Z,85.90
2022-10-19T02:31:09.292Z,86.00
2022-10-19T02:32:09.326Z,86.19
2022-10-19T02:33:09.362Z,85.90
2022-10-19T02:34:09.393Z,86.00
2022-10-19T02:35:09.427Z,86.00
2022-10-19T02:36:09.459Z,86.19
2022-10-19T02:37:09.492Z,86.29
2022-10-19T02:38:09.531Z,86.29
2022-10-19T02:39:09.560Z,86.57
2022-10-19T02:40:09.593Z,86.57
2022-10-19T02:41:09.626Z,86.10
2022-10-19T02:42:09.661Z,86.29
2022-10-19T02:43:09.693Z,86.76
2022-10-19T02:44:09.729Z,86.19
2022-10-19T02:45:09.758Z,86.29
2022-10-19T02:46:09.796Z,86.67
2022-10-19T02:47:09.827Z,86.57
2022-10-19T02:48:09.860Z,86.10
2022-10-19T02:49:09.894Z,86.10
2022-10-19T02:50:09.927Z,86.86
2022-10-19T02:51:09.960Z,86.47
2022-10-19T02:52:10.006Z,86.29
2022-10-19T02:53:10.028Z,86.29
2022-10-19T02:54:10.067Z,86.96
2022-10-19T02:55:10.129Z,86.57
2022-10-19T02:56:10.165Z,86.29
2022-10-19T02:57:10.162Z,86.57
2022-10-19T02:58:10.193Z,86.29
2022-10-19T02:59:10.225Z,86.38
2022-10-19T03:00:10.260Z,86.67
2022-10-19T03:01:10.356Z,86.29
2022-10-19T03:02:10.330Z,86.96
2022-10-19T03:03:10.358Z,86.96
2022-10-19T03:04:10.394Z,87.15
2022-10-19T03:05:10.430Z,87.05
2022-10-19T03:06:10.458Z,86.96
2022-10-19T03:07:10.495Z,86.67
2022-10-19T03:08:10.526Z,87.15
2022-10-19T03:09:10.558Z,87.43
2022-10-19T03:10:10.593Z,87.53
2022-10-19T03:11:10.624Z,87.72
2022-10-19T03:12:10.658Z,87.43
2022-10-19T03:13:10.691Z,87.34
2022-10-19T03:14:10.726Z,87.34
2022-10-19T03:15:10.758Z,87.24
2022-10-19T03:16:10.795Z,87.43
2022-10-19T03:17:10.823Z,87.72
2022-10-19T03:18:10.858Z,87.43
2022-10-19T03:19:10.891Z,87.72
2022-10-19T03:20:10.925Z,87.62
2022-10-19T03:21:10.961Z,87.24
2022-10-19T03:22:10.993Z,87.05
2022-10-19T03:23:11.024Z,86.86
2022-10-19T03:24:11.061Z,87.05
2022-10-19T03:25:11.090Z,86.96
2022-10-19T03:26:12.332Z,87.72
2022-10-19T03:27:11.160Z,87.62
2022-10-19T03:28:11.191Z,86.96
2022-10-19T03:29:11.263Z,87.05
2022-10-19T03:30:11.259Z,86.47
2022-10-19T03:31:11.290Z,86.57
2022-10-19T03:32:11.342Z,86.76
2022-10-19T03:33:11.358Z,86.76
2022-10-19T03:34:11.395Z,86.47
2022-10-19T03:35:11.424Z,86.96
2022-10-19T03:36:11.459Z,86.47
2022-10-19T03:37:11.495Z,86.57
2022-10-19T03:38:11.524Z,86.67
2022-10-19T03:39:11.556Z,86.57
2022-10-19T03:40:11.591Z,86.19
2022-10-19T03:41:11.623Z,86.47
2022-10-19T03:42:11.657Z,86.19
2022-10-19T03:43:11.689Z,85.71
2022-10-19T03:44:11.744Z,86.00
2022-10-19T03:45:11.756Z,86.10
2022-10-19T03:46:11.790Z,86.29
2022-10-19T03:47:11.826Z,86.00
2022-10-19T03:48:11.857Z,86.00
2022-10-19T03:49:11.889Z,85.81
2022-10-19T03:50:11.924Z,85.71
2022-10-19T03:51:11.956Z,85.24
2022-10-19T03:52:11.990Z,85.14
2022-10-19T03:53:12.027Z,85.52
2022-10-19T03:54:12.063Z,85.24
2022-10-19T03:55:12.090Z,85.24
2022-10-19T03:56:12.127Z,84.85
2022-10-19T03:57:12.157Z,84.85
2022-10-19T03:58:12.192Z,85.42
2022-10-19T03:59:12.224Z,85.14
2022-10-19T04:00:12.257Z,85.24
2022-10-19T04:01:12.340Z,85.62
2022-10-19T04:02:12.324Z,85.71
2022-10-19T04:03:12.363Z,85.05
2022-10-19T04:04:12.390Z,85.24
2022-10-19T04:05:12.423Z,85.14
2022-10-19T04:06:12.626Z,85.42
2022-10-19T04:07:12.489Z,85.42
2022-10-19T04:08:12.523Z,85.42
2022-10-19T04:09:12.563Z,85.33
2022-10-19T04:10:12.591Z,85.81
2022-10-19T04:11:12.623Z,85.71
2022-10-19T04:12:12.656Z,85.81
2022-10-19T04:13:12.690Z,85.71
2022-10-19T04:14:18.971Z,86.00
2022-10-19T04:15:12.758Z,85.81
2022-10-19T04:16:12.789Z,86.00
2022-10-19T04:17:12.823Z,86.10
2022-10-19T04:18:12.857Z,86.10
2022-10-19T04:19:12.889Z,86.38
2022-10-19T04:20:12.923Z,85.71
2022-10-19T04:21:12.955Z,86.19
2022-10-19T04:22:12.998Z,86.19
2022-10-19T04:23:13.100Z,86.10
2022-10-19T04:24:13.055Z,86.29
2022-10-19T04:25:13.093Z,86.29
2022-10-19T04:26:13.124Z,86.10
2022-10-19T04:27:13.154Z,86.10
2022-10-19T04:28:13.188Z,86.47
2022-10-19T04:29:13.253Z,86.38
2022-10-19T04:30:13.255Z,86.10
2022-10-19T04:31:13.288Z,86.29
2022-10-19T04:32:13.325Z,86.10
2022-10-19T04:33:13.355Z,86.67
2022-10-19T04:34:13.389Z,86.76
2022-10-19T04:35:13.422Z,86.76
2022-10-19T04:36:13.454Z,86.57
2022-10-19T04:37:13.487Z,86.67
2022-10-19T04:38:13.521Z,87.05
2022-10-19T04:39:13.554Z,86.67
2022-10-19T04:40:14.977Z,86.29
2022-10-19T04:41:13.621Z,87.05
2022-10-19T04:42:13.657Z,86.67
2022-10-19T04:43:13.687Z,86.38
2022-10-19T04:44:13.849Z,86.57
2022-10-19T04:45:13.753Z,86.29
2022-10-19T04:46:13.797Z,86.19
2022-10-19T04:47:13.824Z,86.57
2022-10-19T04:48:15.137Z,86.57
2022-10-19T04:49:16.503Z,86.57
2022-10-19T04:50:13.921Z,86.47
2022-10-19T04:51:13.954Z,86.10
2022-10-19T04:52:13.989Z,86.10
2022-10-19T04:53:14.099Z,85.81
2022-10-19T04:54:14.053Z,86.19
2022-10-19T04:55:14.086Z,86.00
2022-10-19T04:56:14.119Z,85.90
2022-10-19T04:57:14.156Z,86.19
2022-10-19T04:58:14.206Z,86.10
2022-10-19T04:59:14.221Z,85.71
2022-10-19T05:00:14.268Z,86.00
2022-10-19T05:01:14.381Z,85.62
2022-10-19T05:02:14.320Z,85.81
2022-10-19T05:03:14.353Z,85.81
2022-10-19T05:04:14.387Z,85.90
2022-10-19T05:05:14.420Z,86.10
2022-10-19T05:06:14.452Z,85.90
2022-10-19T05:07:14.507Z,85.90
2022-10-19T05:08:14.518Z,85.90
2022-10-19T05:09:14.550Z,86.10
2022-10-19T05:10:14.586Z,85.81
2022-10-19T05:11:14.618Z,86.00
2022-10-19T05:12:14.651Z,86.10
2022-10-19T05:13:14.688Z,86.67
2022-10-19T05:14:14.735Z,86.29
2022-10-19T05:15:14.754Z,86.29
2022-10-19T05:16:14.785Z,86.57
2022-10-19T05:17:14.818Z,86.47
2022-10-19T05:18:14.853Z,86.47
2022-10-19T05:19:14.884Z,86.29
2022-10-19T05:20:14.938Z,86.29
2022-10-19T05:21:14.993Z,86.10
2022-10-19T05:22:14.984Z,86.19
2022-10-19T05:23:15.018Z,86.57
2022-10-19T05:24:15.051Z,86.10
2022-10-19T05:25:15.097Z,86.57
2022-10-19T05:26:15.119Z,86.67
2022-10-19T05:27:15.150Z,86.57
2022-10-19T05:28:15.184Z,86.57
2022-10-19T05:29:15.218Z,86.29
2022-10-19T05:30:15.251Z,86.38
2022-10-19T05:31:15.283Z,86.38
2022-10-19T05:32:15.316Z,86.67
2022-10-19T05:33:15.350Z,86.76
2022-10-19T05:34:15.386Z,86.57
2022-10-19T05:35:17.541Z,86.67
2022-10-19T05:36:15.469Z,86.86
2022-10-19T05:37:15.516Z,87.24
2022-10-19T05:38:15.518Z,87.05
2022-10-19T05:39:15.550Z,86.86
2022-10-19T05:40:15.586Z,87.15
2022-10-19T05:41:15.615Z,87.05
2022-10-19T05:42:15.653Z,87.15
2022-10-19T05:43:15.682Z,86.86
2022-10-19T05:44:15.716Z,87.62
2022-10-19T05:45:15.751Z,87.43
2022-10-19T05:46:15.783Z,87.15
2022-10-19T05:47:15.815Z,87.34
2022-10-19T05:48:15.850Z,87.15
2022-10-19T05:49:15.881Z,87.34
2022-10-19T05:50:15.915Z,87.24
2022-10-19T05:51:15.947Z,87.34
2022-10-19T05:52:15.981Z,87.53
2022-10-19T05:53:16.013Z,87.53
2022-10-19T05:54:16.049Z,87.53
2022-10-19T05:55:16.086Z,86.76
2022-10-19T05:56:16.115Z,86.67
2022-10-19T05:57:16.147Z,86.57
2022-10-19T05:58:16.180Z,87.05
2022-10-19T05:59:16.213Z,86.86
2022-10-19T06:00:16.250Z,86.76
2022-10-19T06:01:16.282Z,86.96
2022-10-19T06:02:16.317Z,87.15
2022-10-19T06:03:16.347Z,87.72
2022-10-19T06:05:16.414Z,87.43
2022-10-19T06:06:16.445Z,87.43
2022-10-19T06:07:16.482Z,87.43
2022-10-19T06:08:16.512Z,87.72
2022-10-19T06:09:16.547Z,87.72
2022-10-19T06:10:16.581Z,87.62
2022-10-19T06:11:16.614Z,87.43
2022-10-19T06:12:16.701Z,87.24
2022-10-19T06:13:16.679Z,87.53
2022-10-19T06:14:16.712Z,87.62
2022-10-19T06:15:16.749Z,87.43
2022-10-19T06:16:16.777Z,87.34
2022-10-19T06:17:16.819Z,87.05
2022-10-19T06:18:16.846Z,87.05
2022-10-19T06:19:16.880Z,87.24
2022-10-19T06:20:16.911Z,87.43
2022-10-19T06:21:16.945Z,87.34
2022-10-19T06:22:16.977Z,87.24
2022-10-19T06:23:17.016Z,87.15
2022-10-19T06:24:17.043Z,87.05
2022-10-19T06:25:20.209Z,87.15
2022-10-19T06:26:17.112Z,87.34
2022-10-19T06:27:17.159Z,87.24
2022-10-19T06:28:17.176Z,87.43
2022-10-19T06:29:17.210Z,87.34
2022-10-19T06:30:17.262Z,87.62
2022-10-19T06:31:17.280Z,87.05
2022-10-19T06:32:17.308Z,87.34
2022-10-19T06:33:17.392Z,87.43
2022-10-19T06:34:17.419Z,87.05
2022-10-19T06:35:17.409Z,87.34
2022-10-19T06:36:17.440Z,87.34
2022-10-19T06:37:17.475Z,87.15
2022-10-19T06:38:17.507Z,87.62
2022-10-19T06:39:17.542Z,87.24
2022-10-19T06:40:17.710Z,87.53
2022-10-19T06:41:17.607Z,87.24
2022-10-19T06:42:17.641Z,87.24
2022-10-19T06:43:17.675Z,87.15
2022-10-19T06:44:17.706Z,87.53
2022-10-19T06:45:17.747Z,87.62
2022-10-19T06:46:17.774Z,87.43
2022-10-19T06:47:17.813Z,87.53
2022-10-19T06:48:17.838Z,87.62
2022-10-19T06:49:17.886Z,87.62
2022-10-19T06:50:17.906Z,87.24
2022-10-19T06:51:17.950Z,87.15
2022-10-19T06:52:17.971Z,86.96
2022-10-19T06:53:18.005Z,87.15
2022-10-19T06:54:18.039Z,87.24
2022-10-19T06:55:18.087Z,87.15
2022-10-19T06:56:18.105Z,87.53
2022-10-19T06:57:18.140Z,87.91
2022-10-19T06:58:18.173Z,87.72
2022-10-19T06:59:18.212Z,88.01
2022-10-19T07:00:18.238Z,87.53
2022-10-19T07:01:18.361Z,88.20
2022-10-19T07:02:18.304Z,87.62
2022-10-19T07:03:18.340Z,87.82
2022-10-19T07:04:18.370Z,87.82
2022-10-19T07:05:18.405Z,87.72
2022-10-19T07:06:18.439Z,88.01
2022-10-19T07:07:18.472Z,87.82
2022-10-19T07:08:18.503Z,87.82
2022-10-19T07:09:18.537Z,88.01
2022-10-19T07:10:18.571Z,88.10
2022-10-19T07:11:18.604Z,88.20
2022-10-19T07:12:18.635Z,88.20
2022-10-19T07:13:18.676Z,88.20
2022-10-19T07:14:18.703Z,88.10
2022-10-19T07:15:18.737Z,88.10
2022-10-19T07:16:20.995Z,87.72
2022-10-19T07:17:18.803Z,87.24
2022-10-19T07:18:18.837Z,87.82
2022-10-19T07:19:18.870Z,87.82
2022-10-19T07:20:18.907Z,87.91
2022-10-19T07:21:18.937Z,87.66
2022-10-19T07:22:24.344Z,87.95
2022-10-19T07:23:19.003Z,87.62
2022-10-19T07:24:19.036Z,87.66
2022-10-19T07:25:19.069Z,87.66
2022-10-19T07:26:19.103Z,87.29
2022-10-19T07:27:19.150Z,87.38
2022-10-19T07:28:19.168Z,87.66
2022-10-19T07:29:19.203Z,87.76
2022-10-19T07:30:19.235Z,87.29
2022-10-19T07:31:19.269Z,87.09
2022-10-19T07:32:19.301Z,87.29
2022-10-19T07:33:19.349Z,87.38
2022-10-19T07:34:19.369Z,87.38
2022-10-19T07:35:19.407Z,87.19
2022-10-19T07:36:19.435Z,87.00
2022-10-19T07:37:19.471Z,87.09
2022-10-19T07:38:19.502Z,87.00
2022-10-19T07:39:19.544Z,87.09
2022-10-19T07:40:19.568Z,87.00
2022-10-19T07:41:19.606Z,87.09
2022-10-19T07:42:19.645Z,86.80
2022-10-19T07:43:19.671Z,86.71
2022-10-19T07:44:19.704Z,86.80
2022-10-19T07:45:19.737Z,87.00
2022-10-19T07:46:19.771Z,86.43
2022-10-19T07:47:19.809Z,86.90
2022-10-19T07:48:19.837Z,86.33
2022-10-19T07:49:19.873Z,86.90
2022-10-19T07:50:19.903Z,86.52
2022-10-19T07:51:19.974Z,86.33
2022-10-19T07:52:19.970Z,86.33
2022-10-19T07:53:20.007Z,86.47
2022-10-19T07:54:20.038Z,86.43
2022-10-19T07:55:20.073Z,86.14
2022-10-19T07:56:20.112Z,86.08
2022-10-19T07:57:20.141Z,85.89
2022-10-19T07:58:20.173Z,86.18
2022-10-19T07:59:20.206Z,86.08
2022-10-19T08:00:20.239Z,85.61
2022-10-19T08:01:20.275Z,85.32
2022-10-19T08:02:20.383Z,85.71
2022-10-19T08:05:20.445Z,86.14
2022-10-19T08:06:20.444Z,86.18
2022-10-19T08:07:20.477Z,86.04
2022-10-19T08:08:20.507Z,86.23
2022-10-19T08:09:47.088Z,86.57
2022-10-19T08:10:20.581Z,86.33
2022-10-19T08:11:20.616Z,86.57
2022-10-19T08:12:20.642Z,86.90
2022-10-19T08:13:20.678Z,86.71
2022-10-19T08:14:20.711Z,87.57
2022-10-19T08:15:20.746Z,87.62
2022-10-19T08:16:20.776Z,87.86
2022-10-19T08:17:20.817Z,87.90
2022-10-19T08:18:20.865Z,88.05
2022-10-19T08:19:20.882Z,88.24
2022-10-19T08:20:20.919Z,88.53
2022-10-19T08:21:20.947Z,88.48
2022-10-19T08:22:20.980Z,88.57
2022-10-19T08:23:21.015Z,88.38
2022-10-19T08:24:21.048Z,88.00
2022-10-19T08:25:21.083Z,87.90
2022-10-19T08:26:21.117Z,88.09
2022-10-19T08:27:21.149Z,87.90
2022-10-19T08:28:21.181Z,87.71
2022-10-19T08:29:21.218Z,88.19
2022-10-19T08:30:21.262Z,88.09
2022-10-19T08:31:21.286Z,88.19
2022-10-19T08:32:21.317Z,88.00
2022-10-19T08:33:21.350Z,87.62
2022-10-19T08:34:21.388Z,87.71
2022-10-19T08:35:21.457Z,87.33
2022-10-19T08:36:21.450Z,87.43
2022-10-19T08:37:40.383Z,87.62
2022-10-19T08:38:21.523Z,86.94
2022-10-19T08:39:21.555Z,86.76
2022-10-19T08:40:21.831Z,87.14
2022-10-19T08:41:21.622Z,86.94
2022-10-19T08:42:21.655Z,86.85
2022-10-19T08:43:21.691Z,86.61
2022-10-19T08:44:21.722Z,86.90
2022-10-19T08:45:21.758Z,86.22
2022-10-19T08:46:21.791Z,86.32
2022-10-19T08:47:23.596Z,86.61
2022-10-19T08:48:21.857Z,86.27
2022-10-19T08:49:21.896Z,85.41
2022-10-19T08:50:21.929Z,84.16
2022-10-19T08:51:21.962Z,83.78
2022-10-19T08:52:21.996Z,83.97
2022-10-19T08:53:22.030Z,83.59
2022-10-19T08:54:22.062Z,83.39
2022-10-19T08:55:22.098Z,82.82
2022-10-19T08:56:45.796Z,83.20
2022-10-19T08:57:22.168Z,82.43
2022-10-19T08:58:22.197Z,82.82
2022-10-19T08:59:22.251Z,82.63
2022-10-19T09:00:22.278Z,82.82
2022-10-19T09:01:22.301Z,82.73
2022-10-19T09:02:22.334Z,82.53
2022-10-19T09:03:31.907Z,82.82
2022-10-19T09:04:22.403Z,82.43
2022-10-19T09:05:22.449Z,82.09
2022-10-19T09:06:22.476Z,81.33
2022-10-19T09:07:22.507Z,81.81
2022-10-19T09:08:22.539Z,81.43
2022-10-19T09:09:22.575Z,81.23
2022-10-19T09:10:22.609Z,80.56
2022-10-19T09:11:22.644Z,81.13
2022-10-19T09:12:22.678Z,80.08
2022-10-19T09:13:22.715Z,80.94
2022-10-19T09:14:22.748Z,80.56
2022-10-19T09:15:22.784Z,80.76
2022-10-19T09:16:22.815Z,80.76
2022-10-19T09:17:22.851Z,81.13
2022-10-19T09:18:22.884Z,80.76
2022-10-19T09:19:22.920Z,79.89
2022-10-19T09:20:22.958Z,79.99
2022-10-19T09:21:30.906Z,80.18
2022-10-19T09:22:23.025Z,80.56
2022-10-19T09:23:23.060Z,79.89
2022-10-19T09:24:23.091Z,80.47
2022-10-19T09:25:23.134Z,79.80
2022-10-19T09:26:23.160Z,79.60
2022-10-19T09:27:23.204Z,79.99
2022-10-19T09:28:25.702Z,80.08
2022-10-19T09:29:23.339Z,79.60
2022-10-19T09:30:23.300Z,79.60
2022-10-19T09:31:23.336Z,79.51
2022-10-19T09:32:23.374Z,79.03
2022-10-19T09:33:23.408Z,78.17
2022-10-19T09:34:23.438Z,78.27
2022-10-19T09:35:23.473Z,78.45
2022-10-19T09:36:39.377Z,78.45
2022-10-19T09:37:26.628Z,78.07
2022-10-19T09:38:23.576Z,78.17
2022-10-19T09:39:25.759Z,78.55
2022-10-19T09:40:23.647Z,77.97
2022-10-19T09:41:23.681Z,78.17
2022-10-19T09:42:23.716Z,78.55
2022-10-19T09:43:23.751Z,78.17
2022-10-19T09:44:23.786Z,78.36
2022-10-19T09:45:23.824Z,77.11
2022-10-19T09:46:23.853Z,77.59
2022-10-19T09:47:23.892Z,77.11
2022-10-19T09:48:23.924Z,76.92
2022-10-19T09:49:23.959Z,77.11
2022-10-19T09:50:23.992Z,76.44
2022-10-19T09:51:24.029Z,76.64
2022-10-19T09:52:24.062Z,76.64
2022-10-19T09:53:24.099Z,76.44
2022-10-19T09:54:24.135Z,76.35
2022-10-19T09:55:24.169Z,76.82
2022-10-19T09:56:24.202Z,76.92
2022-10-19T09:57:24.237Z,76.54
2022-10-19T09:58:24.271Z,76.44
2022-10-19T09:59:24.308Z,76.73
2022-10-19T10:00:24.343Z,76.77
2022-10-19T10:01:24.403Z,76.04
2022-10-19T10:02:24.413Z,75.75
2022-10-19T10:03:24.446Z,76.07
2022-10-19T10:04:31.687Z,73.62
2022-10-19T10:06:17.455Z,70.01
2022-10-19T10:07:17.477Z,68.98
2022-10-19T10:09:10.562Z,65.56
2022-10-19T10:10:10.555Z,65.40
2022-10-19T10:12:14.606Z,63.67
2022-10-19T10:13:14.645Z,63.22
2022-10-19T10:15:18.690Z,61.77
2022-10-19T10:16:18.716Z,61.87
2022-10-19T10:18:11.721Z,60.14
2022-10-19T10:19:11.722Z,60.07
2022-10-19T10:21:15.839Z,56.73
2022-10-19T10:22:15.841Z,55.92
2022-10-19T10:24:19.927Z,52.14
2022-10-19T10:25:19.942Z,50.45
2022-10-19T10:27:24.023Z,46.84
2022-10-19T10:28:24.028Z,46.00
2022-10-19T10:30:28.117Z,43.50
2022-10-19T10:31:28.124Z,43.62
2022-10-19T10:33:33.250Z,42.96
2022-10-19T10:34:28.622Z,42.38
2022-10-19T10:36:14.161Z,40.73
2022-10-19T10:37:14.196Z,39.78
2022-10-19T10:39:18.299Z,38.09
2022-10-19T10:40:21.293Z,36.87
2022-10-19T10:42:11.296Z,34.58
2022-10-19T10:43:11.334Z,35.05
2022-10-19T10:45:15.385Z,35.49
2022-10-19T10:46:15.434Z,35.39
2022-10-19T10:48:08.452Z,35.33
2022-10-19T10:49:08.485Z,32.73
2022-10-19T10:51:12.550Z,31.59
2022-10-19T10:52:12.587Z,31.22
2022-10-19T10:54:16.688Z,30.48
2022-10-19T10:55:16.693Z,28.72
2022-10-19T10:57:10.010Z,28.44
2022-10-19T10:58:09.731Z,29.31
2022-10-19T11:00:13.870Z,29.70
2022-10-19T11:01:13.916Z,29.50
2022-10-19T11:03:17.976Z,31.80
2022-10-19T11:04:17.993Z,31.96
2022-10-19T11:06:11.080Z,35.03
2022-10-19T11:07:11.014Z,36.08
2022-10-19T11:09:04.061Z,36.91
2022-10-19T11:10:04.031Z,37.94
2022-10-19T11:12:08.136Z,39.26
2022-10-19T11:13:08.170Z,38.76
2022-10-19T11:15:12.269Z,40.86
2022-10-19T11:16:12.275Z,41.16
2022-10-19T11:18:16.364Z,41.72
2022-10-19T11:19:16.375Z,43.05
2022-10-19T11:21:09.421Z,44.09
2022-10-19T11:22:09.423Z,42.16
2022-10-19T11:24:24.610Z,43.68
2022-10-19T11:25:24.629Z,44.17
2022-10-19T11:27:17.683Z,43.28
2022-10-19T11:28:17.717Z,43.57
2022-10-19T11:30:21.778Z,44.60
2022-10-19T11:31:21.813Z,44.90
2022-10-19T11:33:25.862Z,45.18
2022-10-19T11:34:26.114Z,45.96
2022-10-19T11:36:29.968Z,47.38
2022-10-19T11:37:30.005Z,47.36
2022-10-19T11:39:34.104Z,48.11
2022-10-19T11:40:34.135Z,47.92
2022-10-19T11:42:38.248Z,48.79
2022-10-19T11:43:38.234Z,48.71
2022-10-19T11:45:31.218Z,47.41
2022-10-19T11:46:31.259Z,47.60
2022-10-19T11:48:35.310Z,46.95
2022-10-19T11:49:35.350Z,46.54
2022-10-19T11:51:39.425Z,45.48
2022-10-19T11:52:39.433Z,45.67
2022-10-19T11:54:32.437Z,47.29
2022-10-19T11:55:32.472Z,48.44
2022-10-19T11:57:36.957Z,48.42
2022-10-19T11:58:36.568Z,49.55
2022-10-19T12:00:40.252Z,50.71
2022-10-19T12:01:29.581Z,50.49
2022-10-19T12:03:33.792Z,52.13
2022-10-19T12:04:33.795Z,52.01
2022-10-19T12:06:26.804Z,52.87
2022-10-19T12:07:26.826Z,52.69
2022-10-19T12:09:30.870Z,52.95
2022-10-19T12:10:30.901Z,54.00
2022-10-19T12:12:35.294Z,53.98
2022-10-19T12:13:35.022Z,54.36
2022-10-19T12:15:39.057Z,54.65
2022-10-19T12:16:39.099Z,54.65
2022-10-19T12:18:43.149Z,54.75
2022-10-19T12:19:43.196Z,55.23
2022-10-19T12:21:47.268Z,55.01
2022-10-19T12:22:47.274Z,54.53
2022-10-19T12:24:51.332Z,54.17
2022-10-19T12:25:51.364Z,53.88
2022-10-19T12:27:55.428Z,53.72
2022-10-19T12:28:55.457Z,52.93
2022-10-19T12:30:59.523Z,45.40
2022-10-19T12:31:59.554Z,42.57
2022-10-19T12:34:03.620Z,38.75
2022-10-19T12:35:03.644Z,38.65
2022-10-19T12:37:07.706Z,39.22
2022-10-19T12:38:07.792Z,39.76
2022-10-19T12:40:11.808Z,41.45
2022-10-19T12:41:11.835Z,41.91
2022-10-19T12:43:15.905Z,43.30
2022-10-19T12:44:15.978Z,45.59
2022-10-19T12:45:15.975Z,46.06
2022-10-19T12:46:16.010Z,46.54
2022-10-19T12:47:16.051Z,46.71
2022-10-19T12:48:16.089Z,47.94
2022-10-19T12:49:16.128Z,48.61
2022-10-19T12:50:16.182Z,48.79
2022-10-19T12:51:16.202Z,49.55
2022-10-19T12:52:16.239Z,49.53
2022-10-19T12:53:16.336Z,49.51
2022-10-19T12:54:16.316Z,50.27
2022-10-19T12:55:16.356Z,49.89
2022-10-19T12:56:16.394Z,51.05
2022-10-19T12:57:18.363Z,50.95
2022-10-19T12:58:16.467Z,50.11
2022-10-19T12:59:16.508Z,50.49
2022-10-19T13:00:16.545Z,50.11
2022-10-19T13:01:16.661Z,50.78
2022-10-19T13:02:16.619Z,50.76
2022-10-19T13:03:16.659Z,51.17
2022-10-19T13:04:16.695Z,51.10
2022-10-19T13:05:16.733Z,49.60
2022-10-19T13:06:16.770Z,48.47
2022-10-19T13:07:16.820Z,46.20
2022-10-19T13:08:16.848Z,43.24
2022-10-19T13:09:16.888Z,42.88
2022-10-19T13:10:16.924Z,41.35
2022-10-19T13:11:16.964Z,41.17
2022-10-19T13:12:21.374Z,40.52
2022-10-19T13:13:17.042Z,40.52
2022-10-19T13:14:17.081Z,39.28
2022-10-19T13:15:17.121Z,39.37
2022-10-19T13:16:17.161Z,39.29
2022-10-19T13:17:17.201Z,37.94
2022-10-19T13:18:17.245Z,38.15
2022-10-19T13:19:17.282Z,38.44
2022-10-19T13:20:17.326Z,37.28
2022-10-19T13:21:17.369Z,36.81
2022-10-19T13:22:17.407Z,36.81
2022-10-19T13:23:17.449Z,36.24
2022-10-19T13:24:17.490Z,36.65
2022-10-19T13:25:17.532Z,36.47
2022-10-19T13:26:17.571Z,35.91
2022-10-19T13:27:18.217Z,34.95
2022-10-19T13:28:17.659Z,34.00
2022-10-19T13:29:17.696Z,33.54
2022-10-19T13:30:17.753Z,32.48
2022-10-19T13:31:17.777Z,31.12
2022-10-19T13:32:17.831Z,31.62
2022-10-19T13:33:17.864Z,30.66
2022-10-19T13:34:17.903Z,29.41
2022-10-19T13:35:17.946Z,28.44
2022-10-19T13:36:17.987Z,27.28
2022-10-19T13:37:18.028Z,27.49
2022-10-19T13:38:18.071Z,27.11
2022-10-19T13:39:18.114Z,27.23
2022-10-19T13:40:23.549Z,26.95
2022-10-19T13:41:18.201Z,25.98
2022-10-19T13:42:18.238Z,25.70
2022-10-19T13:43:18.281Z,25.11
2022-10-19T13:44:18.322Z,24.91
2022-10-19T13:45:18.364Z,25.02
2022-10-19T13:46:18.405Z,24.63
2022-10-19T13:47:18.449Z,24.53
2022-10-19T13:48:18.492Z,24.44
2022-10-19T13:49:18.539Z,24.35